Willow, NY (12495)

12:03 AM EDT on August 30, 2016 (GMT -0400)
Shady | | Change Station

Elev 1299 ft 42.07 °N, 74.17 °W | Updated 4 minutes ago

Clear
Clear
64.1 °F
Feels Like 64.1 °F
N
0.0
Wind Variable Wind from ESE
Gusts 1.0 mph

Today
High -- | Low -- °F
--% Chance of Precip.
Yesterday
High -- | Low -- °F
Precip. -- in
Pressure 30.14 in
Visibility 10.0 miles
Clouds Clear
Dew Point 57 °F
Humidity 78%
Rainfall in
Snow Depth Not available.
6:20 AM 7:33 PM
Waning Crescent, 5% visible
METAR KPOU 300353Z AUTO 00000KT 10SM CLR 17/14 A3015 RMK AO2 SLP205 T01670144 $
Pressure 30.14 in
Visibility 10.0 miles
Clouds Clear
Dew Point 57 °F
Humidity 78%
Rainfall in
Snow Depth Not available.
6:20 AM 7:33 PM
Waning Crescent, 5% visible
METAR KPOU 300353Z AUTO 00000KT 10SM CLR 17/14 A3015 RMK AO2 SLP205 T01670144 $

10-Day Weather Forecast

Almanac

Astronomy

Aug. 30, 2016 Rise Set
Actual Time
Civil Twilight
Nautical Twilight
Astronomical Twilight
Moon
Length of Visible Light
Length of Day
Tomorrow will be .
, % of the Moon is Illuminated

Today's Extremes

State Highs State Lows

Community

WunderPhotos

Upload Photos

1,935,785 photos uploaded!

WunderBlog® & News

Nearby

Air Quality

  Air Quality AQ Index Pollutant
Not available.

Snow Depth

Station Depth Elevation

Earthquake Activity

City Distance Mag. Time & Date
Minimum magnitude displayed is 2.5.

Coastal Water Temperatures

Place Temperature

Stations

Nearby Weather Stations

Station Location Temp. Windchill Dew Point Humidity Wind Precip. Elev Updated Type
                   

Watches & Warnings

There are currently no watches in effect.